createdAt,value
2017-10-14T00:00:44.108Z,100.00
2017-10-14T00:01:50.289Z,100.00
2017-10-14T00:02:56.579Z,100.00
2017-10-14T00:04:02.752Z,100.00
2017-10-14T00:05:09.073Z,100.00
2017-10-14T00:06:16.086Z,100.00
2017-10-14T00:07:22.634Z,100.00
2017-10-14T00:08:28.992Z,100.00
2017-10-14T00:09:35.248Z,100.00
2017-10-14T00:10:41.561Z,100.00
2017-10-14T00:11:47.890Z,100.00
2017-10-14T00:12:54.088Z,100.00
2017-10-14T00:14:00.777Z,100.00
2017-10-14T00:15:06.910Z,100.00
2017-10-14T00:16:13.225Z,100.00
2017-10-14T00:17:19.423Z,100.00
2017-10-14T00:18:29.423Z,100.00
2017-10-14T00:19:35.681Z,100.00
2017-10-14T00:20:41.941Z,100.00
2017-10-14T00:21:48.161Z,100.00
2017-10-14T00:22:54.177Z,100.00
2017-10-14T00:24:00.170Z,100.00
2017-10-14T00:25:06.627Z,100.00
2017-10-14T00:26:13.499Z,100.00
2017-10-14T00:27:19.873Z,100.00
2017-10-14T00:28:26.024Z,100.00
2017-10-14T00:29:33.060Z,100.00
2017-10-14T00:30:39.325Z,100.00
2017-10-14T00:31:45.474Z,100.00
2017-10-14T00:32:51.697Z,100.00
2017-10-14T00:33:57.899Z,100.00
2017-10-14T00:35:09.306Z,100.00
2017-10-14T00:36:15.445Z,100.00
2017-10-14T00:37:21.686Z,100.00
2017-10-14T00:38:27.850Z,100.00
2017-10-14T00:39:34.058Z,100.00
2017-10-14T00:40:40.862Z,100.00
2017-10-14T00:41:47.454Z,100.00
2017-10-14T00:42:53.578Z,100.00
2017-10-14T00:43:59.813Z,100.00
2017-10-14T00:45:06.059Z,100.00
2017-10-14T00:46:12.241Z,100.00
2017-10-14T00:47:18.489Z,100.00
2017-10-14T00:48:24.657Z,100.00
2017-10-14T00:49:30.874Z,100.00
2017-10-14T00:50:36.495Z,100.00
2017-10-14T00:51:42.759Z,100.00
2017-10-14T00:52:49.037Z,100.00
2017-10-14T00:53:55.188Z,100.00
2017-10-14T00:55:01.992Z,100.00
2017-10-14T00:56:07.512Z,100.00
2017-10-14T00:57:13.370Z,100.00
2017-10-14T00:58:18.627Z,100.00
2017-10-14T00:59:24.086Z,100.00
2017-10-14T01:00:29.681Z,100.00
2017-10-14T01:01:35.098Z,100.00
2017-10-14T01:02:41.304Z,100.00
2017-10-14T01:03:47.172Z,100.00
2017-10-14T01:04:53.040Z,100.00
2017-10-14T01:05:59.247Z,100.00
2017-10-14T01:07:05.395Z,100.00
2017-10-14T01:08:11.899Z,100.00
2017-10-14T01:09:18.082Z,100.00
2017-10-14T01:10:24.185Z,100.00
2017-10-14T01:11:30.516Z,100.00
2017-10-14T01:12:36.661Z,100.00
2017-10-14T01:13:42.865Z,100.00
2017-10-14T01:14:49.107Z,100.00
2017-10-14T01:15:58.289Z,100.00
2017-10-14T01:17:04.306Z,100.00
2017-10-14T01:18:10.465Z,100.00
2017-10-14T01:19:16.314Z,100.00
2017-10-14T01:20:22.520Z,100.00
2017-10-14T01:21:28.000Z,100.00
2017-10-14T01:22:33.264Z,100.00
2017-10-14T01:23:38.859Z,100.00
2017-10-14T01:24:44.342Z,100.00
2017-10-14T01:25:49.869Z,100.00
2017-10-14T01:26:55.668Z,100.00
2017-10-14T01:28:01.046Z,100.00
2017-10-14T01:29:06.527Z,100.00
2017-10-14T01:30:12.212Z,100.00
2017-10-14T01:31:17.549Z,100.00
2017-10-14T01:32:23.465Z,100.00
2017-10-14T01:33:28.957Z,100.00
2017-10-14T01:34:34.196Z,100.00
2017-10-14T01:35:40.217Z,100.00
2017-10-14T01:36:45.557Z,100.00
2017-10-14T01:37:50.850Z,100.00
2017-10-14T01:38:56.730Z,100.00
2017-10-14T01:40:02.165Z,100.00
2017-10-14T01:41:07.904Z,100.00
2017-10-14T01:42:13.184Z,100.00
2017-10-14T01:43:19.113Z,100.00
2017-10-14T01:44:24.604Z,100.00
2017-10-14T01:45:30.158Z,100.00
2017-10-14T01:46:35.454Z,100.00
2017-10-14T01:47:41.309Z,100.00
2017-10-14T01:48:46.739Z,100.00
2017-10-14T01:49:52.225Z,100.00
2017-10-14T01:50:58.506Z,100.00
2017-10-14T01:52:03.725Z,100.00
2017-10-14T01:53:09.271Z,100.00
2017-10-14T01:54:14.723Z,100.00
2017-10-14T01:55:22.563Z,100.00
2017-10-14T01:56:28.497Z,100.00
2017-10-14T01:57:33.810Z,100.00
2017-10-14T01:58:39.268Z,100.00
2017-10-14T01:59:44.547Z,100.00
2017-10-14T02:00:52.635Z,100.00
2017-10-14T02:01:58.696Z,100.00
2017-10-14T02:03:04.691Z,100.00
2017-10-14T02:04:11.061Z,100.00
2017-10-14T02:05:17.331Z,100.00
2017-10-14T02:06:23.632Z,100.00
2017-10-14T02:07:29.949Z,100.00
2017-10-14T02:08:36.164Z,100.00
2017-10-14T02:09:42.216Z,100.00
2017-10-14T02:10:47.812Z,100.00
2017-10-14T02:11:53.959Z,100.00
2017-10-14T02:13:00.182Z,100.00
2017-10-14T02:14:05.544Z,100.00
2017-10-14T02:15:11.588Z,100.00
2017-10-14T02:16:17.762Z,100.00
2017-10-14T02:17:23.984Z,100.00
2017-10-14T02:18:30.196Z,100.00
2017-10-14T02:19:36.456Z,100.00
2017-10-14T02:20:42.758Z,100.00
2017-10-14T02:21:49.079Z,100.00
2017-10-14T02:22:55.244Z,100.00
2017-10-14T02:24:01.628Z,100.00
2017-10-14T02:25:07.809Z,100.00
2017-10-14T02:26:14.024Z,100.00
2017-10-14T02:27:20.288Z,100.00
2017-10-14T02:28:26.786Z,100.00
2017-10-14T02:29:33.056Z,100.00
2017-10-14T02:30:39.324Z,100.00
2017-10-14T02:31:45.679Z,100.00
2017-10-14T02:32:51.755Z,100.00
2017-10-14T02:33:57.779Z,100.00
2017-10-14T02:35:04.147Z,100.00
2017-10-14T02:36:10.522Z,100.00
2017-10-14T02:37:17.508Z,100.00
2017-10-14T02:38:23.757Z,100.00
2017-10-14T02:39:30.027Z,100.00
2017-10-14T02:40:36.140Z,100.00
2017-10-14T02:41:42.354Z,100.00
2017-10-14T02:42:48.783Z,100.00
2017-10-14T02:43:55.679Z,100.00
2017-10-14T02:45:02.209Z,100.00
2017-10-14T02:46:08.643Z,100.00
2017-10-14T02:47:14.827Z,100.00
2017-10-14T02:48:24.150Z,100.00
2017-10-14T02:49:30.468Z,100.00
2017-10-14T02:50:38.650Z,100.00
2017-10-14T02:51:45.609Z,100.00
2017-10-14T02:52:52.343Z,100.00
2017-10-14T02:53:58.483Z,100.00
2017-10-14T02:55:04.735Z,100.00
2017-10-14T02:56:10.952Z,100.00
2017-10-14T02:57:16.941Z,100.00
2017-10-14T02:58:23.156Z,100.00
2017-10-14T02:59:29.385Z,100.00
2017-10-14T03:00:35.551Z,100.00
2017-10-14T03:01:41.581Z,100.00
2017-10-14T03:02:47.895Z,100.00
2017-10-14T03:03:55.047Z,100.00
2017-10-14T03:05:01.076Z,100.00
2017-10-14T03:06:07.239Z,100.00
2017-10-14T03:07:13.448Z,100.00
2017-10-14T03:08:19.785Z,100.00
2017-10-14T03:09:25.990Z,100.00
2017-10-14T03:10:32.047Z,100.00
2017-10-14T03:11:38.288Z,100.00
2017-10-14T03:12:44.484Z,100.00
2017-10-14T03:13:50.702Z,100.00
2017-10-14T03:14:56.724Z,100.00
2017-10-14T03:16:02.969Z,100.00
2017-10-14T03:17:08.937Z,100.00
2017-10-14T03:18:15.268Z,100.00
2017-10-14T03:19:22.159Z,100.00
2017-10-14T03:20:31.860Z,100.00
2017-10-14T03:21:38.089Z,100.00
2017-10-14T03:22:44.271Z,100.00
2017-10-14T03:23:50.493Z,100.00
2017-10-14T03:24:56.735Z,100.00
2017-10-14T03:26:02.893Z,100.00
2017-10-14T03:27:09.149Z,100.00
2017-10-14T03:28:15.898Z,100.00
2017-10-14T03:29:22.066Z,100.00
2017-10-14T03:30:31.594Z,100.00
2017-10-14T03:31:37.728Z,100.00
2017-10-14T03:32:43.998Z,100.00
2017-10-14T03:33:50.153Z,100.00
2017-10-14T03:34:56.193Z,100.00
2017-10-14T03:36:02.677Z,100.00
2017-10-14T03:37:09.032Z,100.00
2017-10-14T03:38:16.390Z,100.00
2017-10-14T03:39:22.557Z,100.00
2017-10-14T03:40:28.736Z,100.00
2017-10-14T03:41:34.845Z,100.00
2017-10-14T03:42:41.085Z,100.00
2017-10-14T03:43:47.311Z,100.00
2017-10-14T03:44:53.465Z,100.00
2017-10-14T03:45:59.678Z,100.00
2017-10-14T03:47:06.746Z,100.00
2017-10-14T03:48:12.915Z,100.00
2017-10-14T03:49:19.165Z,100.00
2017-10-14T03:50:28.952Z,100.00
2017-10-14T03:51:35.149Z,100.00
2017-10-14T03:52:41.472Z,100.00
2017-10-14T03:53:47.673Z,100.00
2017-10-14T03:54:54.014Z,100.00
2017-10-14T03:56:00.180Z,100.00
2017-10-14T03:57:06.994Z,100.00
2017-10-14T03:58:13.209Z,100.00
2017-10-14T03:59:19.335Z,100.00
2017-10-14T04:00:25.777Z,100.00
2017-10-14T04:01:31.757Z,100.00
2017-10-14T04:02:37.932Z,100.00
2017-10-14T04:03:44.200Z,100.00
2017-10-14T04:04:50.177Z,100.00
2017-10-14T04:05:56.417Z,100.00
2017-10-14T04:07:02.580Z,100.00
2017-10-14T04:08:08.781Z,100.00
2017-10-14T04:09:15.104Z,100.00
2017-10-14T04:10:21.331Z,100.00
2017-10-14T04:11:27.668Z,100.00
2017-10-14T04:12:33.469Z,100.00
2017-10-14T04:13:39.662Z,100.00
2017-10-14T04:14:45.834Z,100.00
2017-10-14T04:15:52.976Z,100.00
2017-10-14T04:16:59.040Z,100.00
2017-10-14T04:18:04.978Z,100.00
2017-10-14T04:19:11.370Z,100.00
2017-10-14T04:20:18.018Z,100.00
2017-10-14T04:21:24.216Z,100.00
2017-10-14T04:22:30.508Z,100.00
2017-10-14T04:23:39.834Z,100.00
2017-10-14T04:24:46.024Z,100.00
2017-10-14T04:25:52.240Z,100.00
2017-10-14T04:26:58.448Z,100.00
2017-10-14T04:28:04.803Z,100.00
2017-10-14T04:29:10.973Z,100.00
2017-10-14T04:30:17.303Z,100.00
2017-10-14T04:31:23.493Z,100.00
2017-10-14T04:32:29.688Z,100.00
2017-10-14T04:33:35.919Z,100.00
2017-10-14T04:34:42.141Z,100.00
2017-10-14T04:35:48.317Z,100.00
2017-10-14T04:36:54.682Z,100.00
2017-10-14T04:38:00.796Z,100.00
2017-10-14T04:39:07.092Z,100.00
2017-10-14T04:40:13.311Z,100.00
2017-10-14T04:41:19.808Z,100.00
2017-10-14T04:42:26.087Z,100.00
2017-10-14T04:43:32.316Z,100.00
2017-10-14T04:44:40.507Z,100.00
2017-10-14T04:45:49.349Z,100.00
2017-10-14T04:46:55.356Z,100.00
2017-10-14T04:48:01.587Z,100.00
2017-10-14T04:49:07.745Z,100.00
2017-10-14T04:50:14.752Z,100.00
2017-10-14T04:51:20.880Z,100.00
2017-10-14T04:52:27.092Z,100.00
2017-10-14T04:53:33.299Z,100.00
2017-10-14T04:54:39.506Z,100.00
2017-10-14T04:55:45.770Z,100.00
2017-10-14T04:56:52.115Z,100.00
2017-10-14T04:57:58.268Z,100.00
2017-10-14T04:59:04.473Z,100.00
2017-10-14T05:00:10.761Z,100.00
2017-10-14T05:01:17.023Z,100.00
2017-10-14T05:02:23.180Z,100.00
2017-10-14T05:03:29.444Z,100.00
2017-10-14T05:04:36.967Z,100.00
2017-10-14T05:05:43.836Z,100.00
2017-10-14T05:06:51.115Z,100.00
2017-10-14T05:07:58.662Z,100.00
2017-10-14T05:09:05.395Z,100.00
2017-10-14T05:10:13.100Z,100.00
2017-10-14T05:11:20.687Z,100.00
2017-10-14T05:12:29.269Z,100.00
2017-10-14T05:13:37.070Z,100.00
2017-10-14T05:14:43.790Z,100.00
2017-10-14T05:15:50.759Z,100.00
2017-10-14T05:16:57.630Z,100.00
2017-10-14T05:18:05.562Z,100.00
2017-10-14T05:19:12.712Z,100.00
2017-10-14T05:20:18.856Z,100.00
2017-10-14T05:21:25.112Z,100.00
2017-10-14T05:22:32.448Z,100.00
2017-10-14T05:23:41.862Z,100.00
2017-10-14T05:24:51.415Z,100.00
2017-10-14T05:25:58.048Z,100.00
2017-10-14T05:27:05.673Z,100.00
2017-10-14T05:28:12.264Z,100.00
2017-10-14T05:29:20.539Z,100.00
2017-10-14T05:30:27.242Z,100.00
2017-10-14T05:31:34.049Z,100.00
2017-10-14T05:32:40.114Z,100.00
2017-10-14T05:33:47.261Z,100.00
2017-10-14T05:34:55.156Z,100.00
2017-10-14T05:36:02.805Z,100.00
2017-10-14T05:37:10.545Z,100.00
2017-10-14T05:38:17.634Z,100.00
2017-10-14T05:39:24.804Z,100.00
2017-10-14T05:40:32.488Z,100.00
2017-10-14T05:41:39.851Z,100.00
2017-10-14T05:42:47.275Z,100.00
2017-10-14T05:43:54.119Z,100.00
2017-10-14T05:45:00.931Z,100.00
2017-10-14T05:46:07.727Z,100.00
2017-10-14T05:47:15.349Z,100.00
2017-10-14T05:48:22.842Z,100.00
2017-10-14T05:49:30.210Z,100.00
2017-10-14T05:50:37.276Z,100.00
2017-10-14T05:51:44.101Z,100.00
2017-10-14T05:52:50.965Z,100.00
2017-10-14T05:53:58.334Z,100.00
2017-10-14T05:55:05.225Z,100.00
2017-10-14T05:56:12.073Z,100.00
2017-10-14T05:57:20.362Z,100.00
2017-10-14T05:58:27.685Z,100.00
2017-10-14T05:59:36.008Z,100.00
2017-10-14T06:00:43.760Z,100.00
2017-10-14T06:01:51.439Z,100.00
2017-10-14T06:02:59.743Z,100.00
2017-10-14T06:04:07.327Z,100.00
2017-10-14T06:05:15.517Z,100.00
2017-10-14T06:06:23.642Z,100.00
2017-10-14T06:07:31.674Z,100.00
2017-10-14T06:08:39.318Z,100.00
2017-10-14T06:09:46.539Z,100.00
2017-10-14T06:10:53.835Z,100.00
2017-10-14T06:12:02.026Z,100.00
2017-10-14T06:13:12.074Z,100.00
2017-10-14T06:14:20.522Z,100.00
2017-10-14T06:15:27.806Z,100.00
2017-10-14T06:16:35.191Z,100.00
2017-10-14T06:17:42.325Z,100.00
2017-10-14T06:18:49.706Z,100.00
2017-10-14T06:19:57.186Z,100.00
2017-10-14T06:21:04.951Z,100.00
2017-10-14T06:22:12.502Z,100.00
2017-10-14T06:23:20.533Z,100.00
2017-10-14T06:24:27.871Z,100.00
2017-10-14T06:25:35.151Z,100.00
2017-10-14T06:26:46.740Z,100.00
2017-10-14T06:27:54.035Z,100.00
2017-10-14T06:29:01.436Z,100.00
2017-10-14T06:30:08.710Z,100.00
2017-10-14T06:31:16.651Z,100.00
2017-10-14T06:32:24.391Z,100.00
2017-10-14T06:33:30.979Z,100.00
2017-10-14T06:34:38.204Z,100.00
2017-10-14T06:35:44.836Z,100.00
2017-10-14T06:36:50.952Z,100.00
2017-10-14T06:37:56.934Z,100.00
2017-10-14T06:39:03.594Z,100.00
2017-10-14T06:40:09.784Z,100.00
2017-10-14T06:41:16.076Z,100.00
2017-10-14T06:42:22.075Z,100.00
2017-10-14T06:43:29.314Z,100.00
2017-10-14T06:44:35.594Z,100.00
2017-10-14T06:45:41.844Z,100.00
2017-10-14T06:46:48.063Z,100.00
2017-10-14T06:47:54.039Z,100.00
2017-10-14T06:49:00.283Z,100.00
2017-10-14T06:50:06.477Z,100.00
2017-10-14T06:51:12.518Z,100.00
2017-10-14T06:52:18.661Z,100.00
2017-10-14T06:53:24.865Z,100.00
2017-10-14T06:54:31.171Z,100.00
2017-10-14T06:55:37.936Z,100.00
2017-10-14T06:56:44.264Z,100.00
2017-10-14T06:57:50.419Z,100.00
2017-10-14T06:58:56.631Z,100.00
2017-10-14T07:00:02.996Z,100.00
2017-10-14T07:01:09.161Z,100.00
2017-10-14T07:02:15.417Z,100.00
2017-10-14T07:03:21.578Z,100.00
2017-10-14T07:04:27.808Z,100.00
2017-10-14T07:05:36.105Z,100.00
2017-10-14T07:06:44.375Z,100.00
2017-10-14T07:07:51.092Z,100.00
2017-10-14T07:08:57.362Z,99.62
2017-10-14T07:10:04.692Z,99.20
2017-10-14T07:11:12.108Z,98.91
2017-10-14T07:12:20.072Z,98.61
2017-10-14T07:13:27.201Z,98.20
2017-10-14T07:14:35.075Z,98.11
2017-10-14T07:15:41.907Z,97.43
2017-10-14T07:16:49.853Z,97.01
2017-10-14T07:17:57.950Z,96.22
2017-10-14T07:19:04.801Z,95.81
2017-10-14T07:20:10.908Z,95.72
2017-10-14T07:21:19.298Z,94.82
2017-10-14T07:22:26.296Z,94.71
2017-10-14T07:23:35.145Z,93.88
2017-10-14T07:24:41.776Z,93.89
2017-10-14T07:25:49.271Z,93.80
2017-10-14T07:26:57.756Z,93.50
2017-10-14T07:28:04.718Z,93.66
2017-10-14T07:29:14.100Z,93.10
2017-10-14T07:30:20.553Z,93.08
2017-10-14T07:31:28.394Z,93.08
2017-10-14T07:32:36.124Z,92.72
2017-10-14T07:33:43.761Z,92.12
2017-10-14T07:34:51.220Z,92.08
2017-10-14T07:35:58.846Z,91.64
2017-10-14T07:37:05.633Z,91.41
2017-10-14T07:38:12.758Z,91.10
2017-10-14T07:39:20.000Z,91.06
2017-10-14T07:40:27.144Z,90.74
2017-10-14T07:41:34.025Z,90.43
2017-10-14T07:42:41.085Z,90.35
2017-10-14T07:43:48.221Z,90.37
2017-10-14T07:44:55.458Z,89.95
2017-10-14T07:46:02.017Z,89.54
2017-10-14T07:47:11.169Z,89.60
2017-10-14T07:48:18.495Z,89.48
2017-10-14T07:49:24.823Z,89.42
2017-10-14T07:50:30.990Z,89.19
2017-10-14T07:51:37.749Z,89.36
2017-10-14T07:52:44.518Z,88.89
2017-10-14T07:53:52.527Z,88.23
2017-10-14T07:55:00.217Z,88.59
2017-10-14T07:56:07.761Z,88.59
2017-10-14T07:57:15.209Z,88.06
2017-10-14T07:58:25.795Z,87.96
2017-10-14T07:59:33.114Z,87.81
2017-10-14T08:00:40.225Z,87.89
2017-10-14T08:01:47.772Z,87.66
2017-10-14T08:02:55.721Z,87.77
2017-10-14T08:04:03.004Z,88.06
2017-10-14T08:05:11.537Z,88.25
2017-10-14T08:06:20.592Z,88.00
2017-10-14T08:07:28.852Z,88.54
2017-10-14T08:08:36.160Z,87.76
2017-10-14T08:09:43.867Z,87.20
2017-10-14T08:10:50.742Z,86.45
2017-10-14T08:11:58.892Z,85.97
2017-10-14T08:13:06.788Z,84.97
2017-10-14T08:14:18.992Z,84.76
2017-10-14T08:15:26.947Z,84.00
2017-10-14T08:34:18.189Z,82.65
2017-10-14T08:35:26.243Z,82.61
2017-10-14T08:36:33.550Z,82.42
2017-10-14T08:37:40.394Z,82.03
2017-10-14T08:38:48.945Z,81.18
2017-10-14T08:39:57.407Z,80.95
2017-10-14T08:41:05.014Z,80.90
2017-10-14T08:42:12.844Z,80.44
2017-10-14T08:43:19.657Z,80.62
2017-10-14T08:44:28.045Z,80.70
2017-10-14T08:45:34.140Z,80.53
2017-10-14T08:46:40.319Z,80.99
2017-10-14T08:47:46.871Z,80.74
2017-10-14T08:48:53.179Z,80.73
2017-10-14T08:49:59.342Z,80.76
2017-10-14T08:51:06.008Z,80.63
2017-10-14T08:52:12.433Z,80.92
2017-10-14T08:53:18.573Z,80.70
2017-10-14T08:54:24.776Z,80.66
2017-10-14T08:55:30.916Z,80.90
2017-10-14T08:56:37.316Z,80.66
2017-10-14T08:57:44.262Z,80.49
2017-10-14T08:58:50.732Z,80.39
2017-10-14T08:59:56.708Z,79.98
2017-10-14T09:01:02.722Z,79.36
2017-10-14T09:02:08.842Z,79.76
2017-10-14T09:03:15.659Z,80.45
2017-10-14T09:04:21.791Z,80.06
2017-10-14T09:05:28.944Z,80.02
2017-10-14T09:06:35.338Z,80.05
2017-10-14T09:07:41.952Z,79.98
2017-10-14T09:08:48.958Z,80.32
2017-10-14T09:09:55.089Z,79.45
2017-10-14T09:11:01.309Z,79.12
2017-10-14T09:12:12.152Z,79.18
2017-10-14T09:13:19.110Z,79.65
2017-10-14T09:14:25.254Z,79.40
2017-10-14T09:15:32.187Z,79.69
2017-10-14T09:16:38.408Z,79.98
2017-10-14T09:17:44.624Z,79.11
2017-10-14T09:18:50.805Z,79.19
2017-10-14T09:19:56.915Z,78.85
2017-10-14T09:21:02.998Z,78.50
2017-10-14T09:22:08.964Z,78.27
2017-10-14T09:23:15.158Z,78.26
2017-10-14T09:24:21.155Z,78.43
2017-10-14T09:25:27.157Z,78.66
2017-10-14T09:26:33.160Z,78.23
2017-10-14T09:27:39.539Z,77.85
2017-10-14T09:28:45.474Z,77.57
2017-10-14T09:29:51.486Z,77.83
2017-10-14T09:30:57.682Z,77.23
2017-10-14T09:32:03.806Z,76.81
2017-10-14T09:33:10.031Z,76.85
2017-10-14T09:34:16.885Z,76.81
2017-10-14T09:35:23.641Z,76.08
2017-10-14T09:36:29.891Z,75.90
2017-10-14T09:37:36.581Z,74.27
2017-10-14T09:38:43.765Z,75.08
2017-10-14T09:39:49.924Z,73.39
2017-10-14T09:40:55.714Z,72.74
2017-10-14T09:42:02.041Z,72.33
2017-10-14T09:43:08.788Z,72.41
2017-10-14T09:44:15.925Z,71.57
2017-10-14T09:45:24.972Z,72.45
2017-10-14T09:46:31.627Z,72.76
2017-10-14T09:47:38.286Z,72.78
2017-10-14T09:48:45.364Z,71.74
2017-10-14T09:49:52.689Z,72.02
2017-10-14T09:51:00.353Z,72.18
2017-10-14T09:52:07.022Z,71.11
2017-10-14T09:53:14.213Z,71.46
2017-10-14T09:54:21.333Z,71.10
2017-10-14T09:55:27.925Z,71.41
2017-10-14T09:56:34.559Z,71.09
2017-10-14T09:57:41.352Z,70.76
2017-10-14T09:58:50.137Z,70.93
2017-10-14T09:59:56.319Z,70.52
2017-10-14T10:01:02.899Z,70.89
2017-10-14T10:02:09.686Z,70.90
2017-10-14T10:03:16.425Z,71.41
2017-10-14T10:04:24.797Z,70.01
2017-10-14T10:05:34.977Z,71.14
2017-10-14T10:06:41.211Z,70.51
2017-10-14T10:07:47.879Z,69.45
2017-10-14T10:08:54.239Z,69.06
2017-10-14T10:10:02.295Z,70.30
2017-10-14T10:11:08.654Z,70.10
2017-10-14T10:12:18.163Z,70.24
2017-10-14T10:13:25.347Z,69.90
2017-10-14T10:14:31.618Z,70.12
2017-10-14T10:15:37.938Z,69.62
2017-10-14T10:16:44.102Z,69.39
2017-10-14T10:17:50.684Z,68.66
2017-10-14T10:18:57.009Z,68.22
2017-10-14T10:20:03.361Z,67.79
2017-10-14T10:21:09.546Z,67.62
2017-10-14T10:22:15.904Z,67.63
2017-10-14T10:23:22.096Z,67.97
2017-10-14T10:24:28.776Z,68.53
2017-10-14T10:25:36.751Z,68.07
2017-10-14T10:26:44.656Z,67.95
2017-10-14T10:27:51.685Z,67.63
2017-10-14T10:28:59.231Z,67.82
2017-10-14T10:30:09.460Z,67.34
2017-10-14T10:31:15.957Z,66.59
2017-10-14T10:34:10.130Z,65.99
2017-10-14T10:35:18.731Z,65.48
2017-10-14T10:36:26.506Z,65.19
2017-10-14T10:37:36.281Z,63.94
2017-10-14T10:38:44.435Z,63.26
2017-10-14T10:39:53.907Z,62.57
2017-10-14T10:41:02.860Z,63.17
2017-10-14T10:42:10.471Z,64.23
2017-10-14T10:43:19.367Z,64.80
2017-10-14T10:44:27.805Z,63.90
2017-10-14T10:45:35.164Z,63.56
2017-10-14T10:46:41.667Z,63.21
2017-10-14T10:47:49.600Z,62.58
2017-10-14T10:48:56.551Z,63.57
2017-10-14T10:50:03.862Z,63.30
2017-10-14T10:51:12.001Z,64.42
2017-10-14T10:52:19.522Z,65.29
2017-10-14T10:53:26.972Z,66.69
2017-10-14T10:54:33.885Z,67.12
2017-10-14T10:55:40.758Z,67.19
2017-10-14T10:56:48.943Z,67.31
2017-10-14T10:57:55.626Z,67.28
2017-10-14T10:59:03.781Z,67.04
2017-10-14T11:00:12.536Z,67.75
2017-10-14T11:01:19.870Z,67.60
2017-10-14T11:02:27.858Z,66.93
2017-10-14T11:03:35.971Z,67.47
2017-10-14T11:04:43.919Z,67.76
2017-10-14T11:05:51.467Z,67.27
2017-10-14T11:06:59.630Z,66.75
2017-10-14T11:08:06.690Z,67.28
2017-10-14T11:09:14.198Z,67.11
2017-10-14T11:10:21.619Z,67.24
2017-10-14T11:11:30.976Z,65.97
2017-10-14T11:12:38.693Z,66.47
2017-10-14T11:13:46.038Z,65.82
2017-10-14T11:14:53.543Z,65.72
2017-10-14T11:15:59.698Z,65.47
2017-10-14T11:17:07.263Z,66.24
2017-10-14T11:18:13.422Z,66.04
2017-10-14T11:19:21.053Z,66.65
2017-10-14T11:20:28.618Z,66.93
2017-10-14T11:21:36.982Z,66.92
2017-10-14T11:22:45.747Z,66.56
2017-10-14T11:23:56.302Z,65.44
2017-10-14T11:25:04.031Z,65.09
2017-10-14T11:26:13.457Z,65.28
2017-10-14T11:27:21.662Z,65.59
2017-10-14T11:28:28.801Z,65.91
2017-10-14T11:29:36.508Z,65.33
2017-10-14T11:30:43.593Z,65.83
2017-10-14T11:31:52.409Z,65.68
2017-10-14T11:32:59.747Z,65.92
2017-10-14T11:34:07.728Z,65.12
2017-10-14T11:35:14.328Z,64.43
2017-10-14T11:36:22.178Z,63.91
2017-10-14T11:37:28.670Z,64.75
2017-10-14T11:38:36.709Z,65.41
2017-10-14T11:39:43.725Z,65.22
2017-10-14T11:40:50.771Z,64.58
2017-10-14T11:41:57.079Z,64.86
2017-10-14T11:43:03.901Z,64.66
2017-10-14T11:44:12.398Z,65.37
2017-10-14T11:45:18.772Z,65.24
2017-10-14T11:46:25.036Z,65.51
2017-10-14T11:47:33.607Z,65.47
2017-10-14T11:48:40.259Z,65.29
2017-10-14T11:49:46.398Z,64.36
2017-10-14T11:50:52.935Z,64.33
2017-10-14T11:51:59.143Z,64.68
2017-10-14T11:53:05.627Z,64.10
2017-10-14T11:54:12.298Z,64.70
2017-10-14T11:55:19.162Z,64.24
2017-10-14T11:56:28.261Z,64.55
2017-10-14T11:57:34.525Z,64.39
2017-10-14T11:58:41.381Z,64.42
2017-10-14T11:59:47.672Z,65.00
2017-10-14T12:00:54.856Z,65.02
2017-10-14T12:02:03.782Z,64.29
2017-10-14T12:03:10.207Z,64.62
2017-10-14T12:04:17.679Z,64.04
2017-10-14T12:05:25.644Z,64.37
2017-10-14T12:06:32.387Z,64.07
2017-10-14T12:07:38.521Z,64.11
2017-10-14T12:08:46.625Z,63.95
2017-10-14T12:09:56.848Z,64.18
2017-10-14T12:11:04.336Z,64.15
2017-10-14T12:12:10.680Z,64.47
2017-10-14T12:13:17.360Z,64.01
2017-10-14T12:14:25.444Z,64.34
2017-10-14T12:15:32.615Z,62.98
2017-10-14T12:16:38.900Z,62.42
2017-10-14T12:17:46.007Z,61.31
2017-10-14T12:18:54.695Z,61.29
2017-10-14T12:20:01.114Z,61.38
2017-10-14T12:21:07.543Z,61.29
2017-10-14T12:22:15.502Z,60.63
2017-10-14T12:23:22.192Z,60.34
2017-10-14T12:24:28.670Z,60.42
2017-10-14T12:25:34.974Z,61.06
2017-10-14T12:26:46.380Z,60.54
2017-10-14T12:27:53.361Z,60.84
2017-10-14T12:29:00.813Z,60.55
2017-10-14T12:30:09.334Z,61.55
2017-10-14T12:31:15.880Z,60.66
2017-10-14T12:32:22.415Z,59.60
2017-10-14T12:33:29.683Z,60.52
2017-10-14T12:34:37.186Z,60.79
2017-10-14T12:35:43.373Z,60.55
2017-10-14T12:36:49.819Z,61.71
2017-10-14T12:37:56.921Z,61.71
2017-10-14T12:39:03.249Z,61.61
2017-10-14T12:40:09.533Z,60.21
2017-10-14T12:41:21.690Z,60.46
2017-10-14T12:42:32.277Z,59.57
2017-10-14T12:43:40.672Z,59.58
2017-10-14T12:44:48.828Z,58.70
2017-10-14T12:45:56.363Z,58.27
2017-10-14T12:47:02.728Z,57.12
2017-10-14T12:48:11.784Z,57.05
2017-10-14T12:49:18.098Z,56.50
2017-10-14T12:50:25.320Z,55.61
2017-10-14T12:51:31.783Z,54.84
2017-10-14T12:52:43.345Z,54.60
2017-10-14T12:53:50.747Z,53.75
2017-10-14T12:54:58.518Z,53.50
2017-10-14T12:56:07.714Z,54.31
2017-10-14T12:57:14.546Z,52.78
2017-10-14T12:58:25.145Z,53.54
2017-10-14T12:59:36.401Z,52.86
2017-10-14T13:00:53.274Z,55.16
2017-10-14T13:01:59.777Z,54.53
2017-10-14T13:03:06.570Z,54.02
2017-10-14T13:04:19.464Z,52.83
2017-10-14T13:05:28.707Z,52.44
2017-10-14T13:06:37.382Z,54.10
2017-10-14T13:07:44.176Z,54.44
2017-10-14T13:08:50.856Z,54.84
2017-10-14T13:09:58.207Z,54.26
2017-10-14T13:11:04.172Z,51.58
2017-10-14T13:12:11.514Z,52.37
2017-10-14T13:13:19.062Z,51.27
2017-10-14T13:14:27.590Z,50.62
2017-10-14T13:15:34.281Z,51.13
2017-10-14T13:16:40.677Z,50.87
2017-10-14T13:17:48.130Z,49.49
2017-10-14T13:18:54.945Z,49.22
2017-10-14T13:20:01.335Z,50.07
2017-10-14T13:21:07.299Z,49.75
2017-10-14T13:22:13.375Z,49.39
2017-10-14T13:23:20.327Z,52.10
2017-10-14T13:24:27.138Z,51.05
2017-10-14T13:25:36.165Z,50.29
2017-10-14T13:26:42.294Z,50.76
2017-10-14T13:27:51.575Z,50.38
2017-10-14T13:28:58.544Z,51.39
2017-10-14T13:30:09.141Z,52.13
2017-10-14T13:31:18.893Z,50.37
2017-10-14T13:32:26.066Z,51.64
2017-10-14T13:33:38.189Z,51.29
2017-10-14T13:34:45.048Z,50.14
2017-10-14T13:35:58.287Z,48.71
2017-10-14T13:37:12.561Z,47.33
2017-10-14T13:38:20.593Z,46.75
2017-10-14T13:39:26.779Z,47.93
2017-10-14T13:40:34.989Z,50.20
2017-10-14T13:41:43.082Z,47.86
2017-10-14T13:42:49.271Z,46.79
2017-10-14T13:43:56.326Z,45.39
2017-10-14T13:45:05.060Z,43.67
2017-10-14T13:46:12.157Z,42.84
2017-10-14T13:47:18.204Z,46.72
2017-10-14T13:48:24.374Z,48.26
2017-10-14T13:49:32.332Z,48.57
2017-10-14T13:50:44.706Z,48.28
2017-10-14T13:51:51.521Z,48.25
2017-10-14T13:52:58.562Z,46.28
2017-10-14T13:54:04.986Z,46.69
2017-10-14T13:55:21.416Z,45.47
2017-10-14T13:56:27.575Z,48.04
2017-10-14T13:57:34.538Z,48.15
2017-10-14T13:58:40.715Z,47.39
2017-10-14T13:59:55.809Z,47.83
2017-10-14T14:01:02.226Z,49.01
2017-10-14T14:02:08.303Z,50.10
2017-10-14T14:03:14.568Z,48.63
2017-10-14T14:04:20.829Z,48.46
2017-10-14T14:22:56.527Z,52.59
2017-10-14T14:24:03.125Z,52.35
2017-10-14T14:25:09.390Z,52.03
2017-10-14T14:26:15.745Z,50.41
2017-10-14T14:27:25.971Z,47.26
2017-10-14T14:28:32.449Z,48.02
2017-10-14T14:29:39.671Z,48.66
2017-10-14T14:30:45.989Z,53.57
2017-10-14T14:31:52.900Z,53.76
2017-10-14T14:33:01.454Z,53.39
2017-10-14T14:34:08.099Z,51.35
2017-10-14T14:35:14.455Z,49.65
2017-10-14T14:36:20.869Z,48.62
2017-10-14T14:37:35.217Z,53.83
2017-10-14T14:38:41.480Z,51.02
2017-10-14T14:39:48.257Z,48.94
2017-10-14T14:40:54.570Z,51.13
2017-10-14T14:42:04.803Z,51.50
2017-10-14T14:43:11.505Z,51.70
2017-10-14T14:44:18.378Z,53.14
2017-10-14T14:45:25.057Z,52.77
2017-10-14T14:46:31.910Z,51.67